createdAt,value
2023-03-26T00:02:49.154Z,8.50
2023-03-26T00:06:39.135Z,8.50
2023-03-26T00:10:21.509Z,8.50
2023-03-26T00:14:03.981Z,8.40
2023-03-26T00:17:49.036Z,8.40
2023-03-26T00:21:31.479Z,8.40
2023-03-26T00:25:14.873Z,8.30
2023-03-26T00:28:57.659Z,8.30
2023-03-26T00:32:39.710Z,8.30
2023-03-26T00:36:25.728Z,8.30
2023-03-26T00:40:10.995Z,8.20
2023-03-26T00:43:56.578Z,8.10
2023-03-26T00:47:40.398Z,8.10
2023-03-26T00:51:22.685Z,8.00
2023-03-26T00:55:05.006Z,8.00
2023-03-26T00:58:50.182Z,7.90
2023-03-26T01:02:33.429Z,7.90
2023-03-26T01:06:32.867Z,7.80
2023-03-26T01:10:14.997Z,7.80
2023-03-26T01:14:29.161Z,7.80
2023-03-26T01:18:13.950Z,7.70
2023-03-26T01:21:56.819Z,7.70
2023-03-26T01:25:44.777Z,7.60
2023-03-26T01:29:53.017Z,7.60
2023-03-26T01:33:45.873Z,7.50
2023-03-26T01:37:46.936Z,7.50
2023-03-26T01:41:46.973Z,7.40
2023-03-26T01:45:34.133Z,7.40
2023-03-26T01:49:18.060Z,7.40
2023-03-26T01:53:00.728Z,7.40
2023-03-26T01:57:07.696Z,7.40
2023-03-26T02:00:57.699Z,7.40
2023-03-26T02:04:55.797Z,7.40
2023-03-26T02:08:42.642Z,7.40
2023-03-26T02:12:25.578Z,7.50
2023-03-26T02:16:12.327Z,7.40
2023-03-26T02:19:54.378Z,7.50
2023-03-26T02:23:36.962Z,7.50
2023-03-26T02:27:18.948Z,7.50
2023-03-26T02:31:02.088Z,7.50
2023-03-26T02:34:44.060Z,7.50
2023-03-26T02:38:27.086Z,7.50
2023-03-26T02:42:09.101Z,7.50
2023-03-26T02:45:51.273Z,7.50
2023-03-26T02:49:34.092Z,7.50
2023-03-26T02:53:17.267Z,7.50
2023-03-26T02:56:59.512Z,7.50
2023-03-26T03:00:41.517Z,7.50
2023-03-26T03:04:23.486Z,7.50
2023-03-26T03:08:06.067Z,7.50
2023-03-26T03:11:48.062Z,7.50
2023-03-26T03:15:30.129Z,7.50
2023-03-26T03:19:13.016Z,7.50
2023-03-26T03:22:55.028Z,7.50
2023-03-26T03:26:37.821Z,7.50
2023-03-26T03:30:20.086Z,7.50
2023-03-26T03:34:02.078Z,7.50
2023-03-26T03:37:44.141Z,7.50
2023-03-26T03:41:26.150Z,7.50
2023-03-26T03:45:08.836Z,7.50
2023-03-26T03:48:51.088Z,7.40
2023-03-26T03:52:33.722Z,7.50
2023-03-26T03:56:17.674Z,7.40
2023-03-26T03:59:59.720Z,7.40
2023-03-26T04:03:41.913Z,7.40
2023-03-26T04:07:25.879Z,7.40
2023-03-26T04:11:07.859Z,7.30
2023-03-26T04:14:49.918Z,7.30
2023-03-26T04:18:32.620Z,7.20
2023-03-26T04:22:14.657Z,7.20
2023-03-26T04:25:58.473Z,7.10
2023-03-26T04:29:46.785Z,7.10
2023-03-26T04:33:31.496Z,7.10
2023-03-26T04:37:22.878Z,7.00
2023-03-26T04:41:07.842Z,7.00
2023-03-26T04:44:51.023Z,7.00
2023-03-26T04:48:33.056Z,7.00
2023-03-26T04:52:15.728Z,7.00
2023-03-26T04:56:12.088Z,7.00
2023-03-26T04:59:54.159Z,7.00
2023-03-26T05:03:39.319Z,7.00
2023-03-26T05:07:25.764Z,7.00
2023-03-26T05:11:12.196Z,7.00
2023-03-26T05:14:54.289Z,7.00
2023-03-26T05:18:36.293Z,7.10
2023-03-26T05:22:19.280Z,7.10
2023-03-26T05:26:01.812Z,7.10
2023-03-26T05:29:44.276Z,7.10
2023-03-26T05:33:26.389Z,7.10
2023-03-26T05:37:09.380Z,7.10
2023-03-26T05:40:51.414Z,7.10
2023-03-26T05:44:33.592Z,7.10
2023-03-26T05:48:15.579Z,7.10
2023-03-26T05:51:57.578Z,7.10
2023-03-26T05:55:40.855Z,7.10
2023-03-26T05:59:23.209Z,7.10
2023-03-26T06:03:06.122Z,7.10
2023-03-26T06:06:48.184Z,7.20
2023-03-26T06:10:30.727Z,7.20
2023-03-26T06:14:12.750Z,7.20
2023-03-26T06:17:54.797Z,7.20
2023-03-26T06:21:36.877Z,7.20
2023-03-26T06:25:19.423Z,7.20
2023-03-26T06:29:01.552Z,7.20
2023-03-26T06:32:43.640Z,7.20
2023-03-26T06:36:25.920Z,7.20
2023-03-26T06:40:08.521Z,7.20
2023-03-26T06:43:50.724Z,7.20
2023-03-26T06:47:32.859Z,7.20
2023-03-26T06:51:15.875Z,7.20
2023-03-26T06:54:58.052Z,7.20
2023-03-26T06:58:40.155Z,7.30
2023-03-26T07:02:22.184Z,7.30
2023-03-26T07:06:04.414Z,7.30
2023-03-26T07:09:46.468Z,7.30
2023-03-26T07:13:28.454Z,7.40
2023-03-26T07:17:10.602Z,7.40
2023-03-26T07:20:53.133Z,7.50
2023-03-26T07:24:36.340Z,7.50
2023-03-26T07:28:29.100Z,7.60
2023-03-26T07:32:23.720Z,7.60
2023-03-26T07:36:29.468Z,7.70
2023-03-26T07:40:48.036Z,7.70
2023-03-26T07:45:14.125Z,7.70
2023-03-26T07:48:58.552Z,7.80
2023-03-26T07:52:41.105Z,7.80
2023-03-26T07:56:40.865Z,7.90
2023-03-26T08:00:30.703Z,7.90
2023-03-26T08:04:31.391Z,8.00
2023-03-26T08:08:23.113Z,8.00
2023-03-26T08:12:20.882Z,8.10
2023-03-26T08:16:40.116Z,8.10
2023-03-26T08:20:32.784Z,8.20
2023-03-26T08:24:25.534Z,8.20
2023-03-26T08:28:39.956Z,8.10
2023-03-26T08:32:22.274Z,8.00
2023-03-26T08:36:04.683Z,8.10
2023-03-26T08:39:46.921Z,8.10
2023-03-26T08:44:07.029Z,8.10
2023-03-26T08:48:29.070Z,8.00
2023-03-26T08:52:30.907Z,8.10
2023-03-26T08:56:46.296Z,8.10
2023-03-26T09:00:53.592Z,8.00
2023-03-26T09:05:07.184Z,8.10
2023-03-26T09:09:18.801Z,8.20
2023-03-26T09:13:15.165Z,8.40
2023-03-26T09:17:18.680Z,8.70
2023-03-26T09:21:22.441Z,9.20
2023-03-26T09:25:43.011Z,9.70
2023-03-26T09:29:53.618Z,10.20
2023-03-26T09:33:56.615Z,10.40
2023-03-26T09:37:57.447Z,10.50
2023-03-26T09:42:19.392Z,10.50
2023-03-26T09:46:04.323Z,10.40
2023-03-26T09:50:01.662Z,10.30
2023-03-26T09:54:18.979Z,10.20
2023-03-26T09:58:38.455Z,10.00
2023-03-26T10:03:11.274Z,10.00
2023-03-26T10:07:24.231Z,9.90
2023-03-26T10:11:15.597Z,9.90
2023-03-26T10:15:26.871Z,9.80
2023-03-26T10:19:39.702Z,9.80
2023-03-26T10:23:22.438Z,9.80
2023-03-26T10:27:31.006Z,9.80
2023-03-26T10:31:43.784Z,9.80
2023-03-26T10:35:49.053Z,9.80
2023-03-26T10:39:58.074Z,9.90
2023-03-26T10:44:07.822Z,10.00
2023-03-26T10:48:11.891Z,10.00
2023-03-26T10:52:01.636Z,10.10
2023-03-26T10:55:48.523Z,10.30
2023-03-26T10:59:30.791Z,10.50
2023-03-26T11:03:41.982Z,10.60
2023-03-26T11:07:53.910Z,10.90
2023-03-26T11:11:38.868Z,11.90
2023-03-26T11:15:51.027Z,12.90
2023-03-26T11:19:39.493Z,13.30
2023-03-26T11:23:27.255Z,13.50
2023-03-26T11:27:20.927Z,14.00
2023-03-26T11:31:34.140Z,14.50
2023-03-26T11:35:40.903Z,14.70
2023-03-26T11:39:31.831Z,15.40
2023-03-26T11:43:17.336Z,16.30
2023-03-26T11:47:04.712Z,16.50
2023-03-26T11:50:52.934Z,16.50
2023-03-26T11:54:35.252Z,16.00
2023-03-26T11:58:50.166Z,15.20
2023-03-26T12:02:39.296Z,14.40
2023-03-26T12:06:29.056Z,13.70
2023-03-26T12:10:21.857Z,13.20
2023-03-26T12:14:05.677Z,12.70
2023-03-26T12:17:53.531Z,12.50
2023-03-26T12:21:48.502Z,12.20
2023-03-26T12:25:33.336Z,12.00
2023-03-26T12:29:18.026Z,11.90
2023-03-26T12:33:03.908Z,11.60
2023-03-26T12:36:55.425Z,11.40
2023-03-26T12:40:39.486Z,11.20
2023-03-26T12:44:59.186Z,11.10
2023-03-26T12:48:42.266Z,10.90
2023-03-26T12:52:30.359Z,10.80
2023-03-26T12:56:36.898Z,10.60
2023-03-26T13:00:49.192Z,10.50
2023-03-26T13:05:06.157Z,10.40
2023-03-26T13:08:57.806Z,10.30
2023-03-26T13:13:10.290Z,10.20
2023-03-26T13:16:52.427Z,10.20
2023-03-26T13:20:49.921Z,10.20
2023-03-26T13:24:56.484Z,10.30
2023-03-26T13:29:07.414Z,10.40
2023-03-26T13:32:58.971Z,10.50
2023-03-26T13:36:59.573Z,10.80
2023-03-26T13:41:19.164Z,11.10
2023-03-26T13:45:09.706Z,11.20
2023-03-26T13:49:18.675Z,11.30
2023-03-26T13:53:08.096Z,11.50
2023-03-26T13:57:00.056Z,11.80
2023-03-26T14:01:09.755Z,11.90
2023-03-26T14:04:56.804Z,11.80
2023-03-26T14:08:47.248Z,11.50
2023-03-26T14:12:52.544Z,11.50
2023-03-26T14:16:42.022Z,11.50
2023-03-26T14:20:40.626Z,11.50
2023-03-26T14:24:43.879Z,11.50
2023-03-26T14:28:57.062Z,11.60
2023-03-26T14:32:54.475Z,11.60
2023-03-26T14:37:06.303Z,11.40
2023-03-26T14:40:58.566Z,11.20
2023-03-26T14:45:18.532Z,11.00
2023-03-26T14:49:28.544Z,11.00
2023-03-26T14:53:28.138Z,11.20
2023-03-26T14:57:50.117Z,11.20
2023-03-26T15:01:54.256Z,11.30
2023-03-26T15:05:42.470Z,11.30
2023-03-26T15:09:36.410Z,11.40
2023-03-26T15:13:21.384Z,11.40
2023-03-26T15:17:22.086Z,11.30
2023-03-26T15:21:28.655Z,11.20
2023-03-26T15:25:41.627Z,11.10
2023-03-26T15:29:42.387Z,11.10
2023-03-26T15:33:53.464Z,11.10
2023-03-26T15:38:08.165Z,11.00
2023-03-26T15:42:02.091Z,11.10
2023-03-26T15:45:57.459Z,11.00
2023-03-26T15:49:44.349Z,11.10
2023-03-26T15:53:39.008Z,11.20
2023-03-26T15:57:47.929Z,11.30
2023-03-26T16:01:34.070Z,11.50
2023-03-26T16:05:25.684Z,11.50
2023-03-26T16:09:45.774Z,11.50
2023-03-26T16:13:34.740Z,11.50
2023-03-26T16:17:26.018Z,11.50
2023-03-26T16:21:34.416Z,11.30
2023-03-26T16:25:35.403Z,11.10
2023-03-26T16:29:25.841Z,11.10
2023-03-26T16:33:18.627Z,11.10
2023-03-26T16:37:01.132Z,11.10
2023-03-26T16:40:51.186Z,10.90
2023-03-26T16:44:37.672Z,10.70
2023-03-26T16:48:38.190Z,10.50
2023-03-26T16:52:28.587Z,10.40
2023-03-26T16:56:38.116Z,10.20
2023-03-26T17:00:38.806Z,10.10
2023-03-26T17:04:27.452Z,10.10
2023-03-26T17:08:35.458Z,10.00
2023-03-26T17:12:34.153Z,10.00
2023-03-26T17:16:21.594Z,9.90
2023-03-26T17:20:25.377Z,9.80
2023-03-26T17:24:32.464Z,9.70
2023-03-26T17:28:37.309Z,9.60
2023-03-26T17:32:21.717Z,9.50
2023-03-26T17:36:13.075Z,9.40
2023-03-26T17:39:58.101Z,9.40
2023-03-26T17:43:50.956Z,9.30
2023-03-26T17:47:45.897Z,9.30
2023-03-26T17:51:44.556Z,9.30
2023-03-26T17:55:31.417Z,9.30
2023-03-26T17:59:23.632Z,9.30
2023-03-26T18:03:29.547Z,9.30
2023-03-26T18:07:31.137Z,9.30
2023-03-26T18:11:38.194Z,9.20
2023-03-26T18:15:46.938Z,9.20
2023-03-26T18:19:31.991Z,9.20
2023-03-26T18:23:30.284Z,9.10
2023-03-26T18:27:16.618Z,9.00
2023-03-26T18:31:17.038Z,8.80
2023-03-26T18:35:20.511Z,8.60
2023-03-26T18:39:04.486Z,8.30
2023-03-26T18:42:55.987Z,8.20
2023-03-26T18:46:39.005Z,8.00
2023-03-26T18:50:37.630Z,7.80
2023-03-26T18:54:21.497Z,7.60
2023-03-26T18:58:31.285Z,7.50
2023-03-26T19:02:14.638Z,7.30
2023-03-26T19:05:58.221Z,7.20
2023-03-26T19:09:41.698Z,7.10
2023-03-26T19:13:24.058Z,6.90
2023-03-26T19:17:07.235Z,6.80
2023-03-26T19:20:54.113Z,6.70
2023-03-26T19:24:37.165Z,6.60
2023-03-26T19:28:23.651Z,6.50
2023-03-26T19:32:17.037Z,6.40
2023-03-26T19:36:19.522Z,6.30
2023-03-26T19:40:38.269Z,6.30
2023-03-26T19:44:27.852Z,6.20
2023-03-26T19:48:15.586Z,6.00
2023-03-26T19:52:13.252Z,5.90
2023-03-26T19:56:16.125Z,5.80
2023-03-26T19:59:59.251Z,5.70
2023-03-26T20:03:44.438Z,5.50
2023-03-26T20:07:35.770Z,5.50
2023-03-26T20:11:38.137Z,5.40
2023-03-26T20:15:25.854Z,5.30
2023-03-26T20:19:08.912Z,5.20
2023-03-26T20:22:51.838Z,5.10
2023-03-26T20:26:33.936Z,5.00
2023-03-26T20:30:19.041Z,5.00
2023-03-26T20:34:01.324Z,4.90
2023-03-26T20:37:43.434Z,4.90
2023-03-26T20:41:26.356Z,4.80
2023-03-26T20:45:18.214Z,4.80
2023-03-26T20:49:00.305Z,4.80
2023-03-26T20:52:44.201Z,4.90
2023-03-26T20:56:27.126Z,4.90
2023-03-26T21:00:22.608Z,5.00
2023-03-26T21:04:04.720Z,5.20
2023-03-26T21:07:47.070Z,5.30
2023-03-26T21:11:47.292Z,5.40
2023-03-26T21:15:29.953Z,5.50
2023-03-26T21:19:12.465Z,5.60
2023-03-26T21:23:12.895Z,5.70
2023-03-26T21:26:59.291Z,5.80
2023-03-26T21:30:42.597Z,5.80
2023-03-26T21:34:24.885Z,6.00
2023-03-26T21:38:09.435Z,6.00
2023-03-26T21:42:04.889Z,6.10
2023-03-26T21:45:49.265Z,6.20
2023-03-26T21:49:31.546Z,6.20
2023-03-26T21:53:17.723Z,6.30
2023-03-26T21:57:11.625Z,6.30
2023-03-26T22:01:22.992Z,6.40
2023-03-26T22:05:12.499Z,6.40
2023-03-26T22:08:54.788Z,6.40
2023-03-26T22:12:36.746Z,6.50
2023-03-26T22:16:18.986Z,6.50
2023-03-26T22:20:01.574Z,6.60
2023-03-26T22:23:43.656Z,6.60
2023-03-26T22:27:26.477Z,6.60
2023-03-26T22:31:09.338Z,6.60
2023-03-26T22:34:52.184Z,6.60
2023-03-26T22:38:34.233Z,6.60
2023-03-26T22:42:16.180Z,6.60
2023-03-26T22:45:58.288Z,6.70
2023-03-26T22:49:40.793Z,6.60
2023-03-26T22:53:25.200Z,6.70
2023-03-26T22:57:07.642Z,6.70
2023-03-26T23:00:53.864Z,6.70
2023-03-26T23:04:37.748Z,6.70
2023-03-26T23:08:19.894Z,6.70
2023-03-26T23:12:02.085Z,6.70
2023-03-26T23:15:45.281Z,6.70
2023-03-26T23:19:27.332Z,6.70
2023-03-26T23:23:09.750Z,6.70
2023-03-26T23:26:52.244Z,6.70
2023-03-26T23:30:34.259Z,6.70
2023-03-26T23:34:17.222Z,6.70
2023-03-26T23:38:02.306Z,6.70
2023-03-26T23:41:44.258Z,6.70
2023-03-26T23:45:26.350Z,6.80
2023-03-26T23:49:10.364Z,6.80
2023-03-26T23:52:52.393Z,6.70
2023-03-26T23:56:34.513Z,6.70
